createdAt,value
2018-10-03T00:00:27.923Z,99.99
2018-10-03T00:01:27.920Z,99.99
2018-10-03T00:02:27.916Z,99.99
2018-10-03T00:03:27.907Z,99.99
2018-10-03T00:04:27.901Z,99.99
2018-10-03T00:05:27.890Z,99.99
2018-10-03T00:06:27.885Z,99.99
2018-10-03T00:07:27.883Z,99.99
2018-10-03T00:08:27.874Z,99.99
2018-10-03T00:09:27.865Z,99.99
2018-10-03T00:10:27.859Z,99.99
2018-10-03T00:11:27.852Z,99.99
2018-10-03T00:12:27.847Z,99.99
2018-10-03T00:13:27.844Z,99.99
2018-10-03T00:14:27.841Z,99.99
2018-10-03T00:15:27.833Z,99.99
2018-10-03T00:16:27.826Z,99.99
2018-10-03T00:17:27.814Z,99.99
2018-10-03T00:18:27.810Z,99.99
2018-10-03T00:19:27.802Z,99.99
2018-10-03T00:20:27.795Z,99.99
2018-10-03T00:21:27.793Z,99.99
2018-10-03T00:22:27.788Z,99.99
2018-10-03T00:23:27.887Z,99.99
2018-10-03T00:24:27.771Z,99.99
2018-10-03T00:25:27.771Z,99.99
2018-10-03T00:26:27.765Z,99.99
2018-10-03T00:27:27.758Z,99.99
2018-10-03T00:28:27.750Z,99.99
2018-10-03T00:29:27.740Z,99.99
2018-10-03T00:30:27.738Z,99.99
2018-10-03T00:31:27.728Z,99.99
2018-10-03T00:32:27.722Z,99.99
2018-10-03T00:33:27.719Z,99.99
2018-10-03T00:34:27.717Z,99.99
2018-10-03T00:35:27.707Z,99.99
2018-10-03T00:36:27.700Z,99.99
2018-10-03T00:37:27.693Z,99.99
2018-10-03T00:38:27.686Z,99.99
2018-10-03T00:39:27.686Z,99.99
2018-10-03T00:40:27.676Z,99.99
2018-10-03T00:41:27.666Z,99.99
2018-10-03T00:42:27.660Z,99.99
2018-10-03T00:43:27.655Z,99.99
2018-10-03T00:44:27.648Z,99.99
2018-10-03T00:45:27.647Z,99.99
2018-10-03T00:46:27.642Z,99.99
2018-10-03T00:47:27.634Z,99.99
2018-10-03T00:48:27.629Z,99.99
2018-10-03T00:49:27.617Z,99.99
2018-10-03T00:50:27.612Z,99.99
2018-10-03T00:51:27.606Z,99.99
2018-10-03T00:52:27.599Z,99.99
2018-10-03T00:53:27.601Z,99.99
2018-10-03T00:54:27.593Z,99.99
2018-10-03T00:55:27.582Z,99.99
2018-10-03T00:56:27.576Z,99.99
2018-10-03T00:57:27.576Z,99.99
2018-10-03T00:58:27.567Z,99.99
2018-10-03T00:59:27.564Z,99.99
2018-10-03T01:00:27.556Z,99.99
2018-10-03T01:01:27.545Z,99.99
2018-10-03T01:02:27.540Z,99.99
2018-10-03T01:03:27.534Z,99.99
2018-10-03T01:04:27.528Z,99.99
2018-10-03T01:05:27.526Z,99.99
2018-10-03T01:06:27.519Z,99.99
2018-10-03T01:07:27.515Z,99.99
2018-10-03T01:08:27.512Z,99.99
2018-10-03T01:09:27.497Z,99.99
2018-10-03T01:10:27.491Z,99.99
2018-10-03T01:11:27.495Z,99.99
2018-10-03T01:12:27.539Z,99.99
2018-10-03T01:13:27.473Z,99.99
2018-10-03T01:14:27.468Z,99.99
2018-10-03T01:15:27.462Z,99.99
2018-10-03T01:16:27.454Z,99.99
2018-10-03T01:17:27.453Z,99.99
2018-10-03T01:18:27.447Z,99.99
2018-10-03T01:19:27.445Z,99.99
2018-10-03T01:20:27.434Z,99.99
2018-10-03T01:21:27.424Z,99.99
2018-10-03T01:22:27.418Z,99.99
2018-10-03T01:23:27.414Z,99.99
2018-10-03T01:24:27.407Z,99.99
2018-10-03T01:25:27.405Z,99.99
2018-10-03T01:26:27.400Z,99.99
2018-10-03T01:27:27.390Z,99.99
2018-10-03T01:28:27.383Z,99.99
2018-10-03T01:29:27.381Z,99.99
2018-10-03T01:30:27.375Z,99.99
2018-10-03T01:31:27.368Z,99.99
2018-10-03T01:32:27.361Z,99.99
2018-10-03T01:33:27.352Z,99.99
2018-10-03T01:34:27.345Z,99.99
2018-10-03T01:35:27.340Z,99.99
2018-10-03T01:36:27.333Z,99.99
2018-10-03T01:37:27.330Z,99.99
2018-10-03T01:38:27.464Z,99.99
2018-10-03T01:39:27.323Z,99.99
2018-10-03T01:40:27.313Z,99.99
2018-10-03T01:41:27.306Z,99.99
2018-10-03T01:42:27.302Z,99.99
2018-10-03T01:43:27.296Z,99.99
2018-10-03T01:44:27.289Z,99.99
2018-10-03T01:45:27.278Z,99.99
2018-10-03T01:46:27.273Z,99.99
2018-10-03T01:47:27.266Z,99.99
2018-10-03T01:48:27.260Z,99.99
2018-10-03T01:49:27.257Z,99.99
2018-10-03T01:50:27.251Z,99.99
2018-10-03T01:51:27.243Z,99.99
2018-10-03T01:52:27.235Z,99.99
2018-10-03T01:53:27.233Z,99.99
2018-10-03T01:54:27.228Z,99.99
2018-10-03T01:55:27.221Z,99.99
2018-10-03T01:56:27.214Z,99.99
2018-10-03T01:57:27.206Z,99.99
2018-10-03T01:58:27.199Z,99.99
2018-10-03T01:59:27.202Z,99.99
2018-10-03T02:00:27.188Z,99.99
2018-10-03T02:01:27.182Z,99.99
2018-10-03T02:02:27.174Z,99.99
2018-10-03T02:03:27.167Z,99.99
2018-10-03T02:04:27.161Z,99.99
2018-10-03T02:05:27.209Z,99.99
2018-10-03T02:06:27.154Z,99.99
2018-10-03T02:07:27.148Z,99.99
2018-10-03T02:08:27.141Z,99.99
2018-10-03T02:09:27.131Z,99.99
2018-10-03T02:10:27.128Z,99.99
2018-10-03T02:11:27.117Z,99.99
2018-10-03T02:12:27.113Z,99.99
2018-10-03T02:13:27.109Z,99.99
2018-10-03T02:14:27.102Z,99.99
2018-10-03T02:15:27.092Z,99.99
2018-10-03T02:16:27.088Z,99.99
2018-10-03T02:17:27.084Z,99.99
2018-10-03T02:18:27.078Z,99.99
2018-10-03T02:19:27.074Z,99.99
2018-10-03T02:20:27.066Z,99.99
2018-10-03T02:21:27.058Z,99.99
2018-10-03T02:22:27.050Z,99.99
2018-10-03T02:23:27.044Z,99.99
2018-10-03T02:24:27.038Z,99.99
2018-10-03T02:25:27.036Z,99.99
2018-10-03T02:26:27.030Z,99.99
2018-10-03T02:27:27.024Z,99.99
2018-10-03T02:28:27.017Z,99.99
2018-10-03T02:29:27.007Z,99.99
2018-10-03T02:30:27.001Z,99.99
2018-10-03T02:31:26.999Z,99.99
2018-10-03T02:32:26.991Z,99.99
2018-10-03T02:33:26.982Z,99.99
2018-10-03T02:34:26.979Z,99.99
2018-10-03T02:35:26.971Z,99.99
2018-10-03T02:36:26.970Z,99.99
2018-10-03T02:37:27.027Z,99.99
2018-10-03T02:38:26.957Z,99.99
2018-10-03T02:39:26.955Z,99.99
2018-10-03T02:40:26.944Z,99.99
2018-10-03T02:41:26.932Z,99.99
2018-10-03T02:42:26.937Z,99.99
2018-10-03T02:43:26.924Z,99.99
2018-10-03T02:44:26.914Z,99.99
2018-10-03T02:45:26.914Z,99.99
2018-10-03T02:46:26.907Z,99.99
2018-10-03T02:47:26.897Z,99.99
2018-10-03T02:48:26.894Z,99.99
2018-10-03T02:49:26.892Z,99.99
2018-10-03T02:50:26.883Z,99.99
2018-10-03T02:51:26.877Z,99.99
2018-10-03T02:52:26.874Z,99.99
2018-10-03T02:53:26.865Z,99.99
2018-10-03T02:54:26.858Z,99.99
2018-10-03T02:55:26.847Z,99.99
2018-10-03T02:56:26.843Z,99.99
2018-10-03T02:57:26.843Z,99.99
2018-10-03T02:58:26.834Z,99.99
2018-10-03T02:59:26.830Z,99.99
2018-10-03T03:00:26.828Z,99.99
2018-10-03T03:01:26.838Z,99.99
2018-10-03T03:02:26.806Z,99.99
2018-10-03T03:03:26.806Z,99.99
2018-10-03T03:04:26.799Z,99.99
2018-10-03T03:05:26.794Z,99.99
2018-10-03T03:06:26.793Z,99.99
2018-10-03T03:07:26.773Z,99.99
2018-10-03T03:08:26.783Z,99.99
2018-10-03T03:09:26.769Z,99.99
2018-10-03T03:10:26.766Z,99.99
2018-10-03T03:11:26.755Z,99.99
2018-10-03T03:12:26.747Z,99.99
2018-10-03T03:13:26.736Z,99.99
2018-10-03T03:14:26.730Z,99.99
2018-10-03T03:15:26.724Z,99.99
2018-10-03T03:16:26.723Z,99.99
2018-10-03T03:17:26.717Z,99.99
2018-10-03T03:18:26.711Z,99.99
2018-10-03T03:19:26.700Z,99.99
2018-10-03T03:20:26.692Z,99.99
2018-10-03T03:21:26.696Z,99.99
2018-10-03T03:22:26.688Z,99.99
2018-10-03T03:23:26.679Z,99.99
2018-10-03T03:24:26.672Z,99.99
2018-10-03T03:25:26.664Z,99.99
2018-10-03T03:26:26.658Z,99.99
2018-10-03T03:27:26.650Z,99.99
2018-10-03T03:28:26.643Z,99.99
2018-10-03T03:29:26.642Z,99.99
2018-10-03T03:30:26.635Z,99.99
2018-10-03T03:31:26.631Z,99.99
2018-10-03T03:32:26.623Z,99.99
2018-10-03T03:33:26.622Z,99.99
2018-10-03T03:34:26.612Z,99.99
2018-10-03T03:35:26.606Z,99.99
2018-10-03T03:36:26.601Z,99.99
2018-10-03T03:37:26.588Z,99.99
2018-10-03T03:38:26.583Z,99.99
2018-10-03T03:39:26.577Z,99.99
2018-10-03T03:40:26.571Z,99.99
2018-10-03T03:41:26.568Z,99.99
2018-10-03T03:42:26.561Z,99.99
2018-10-03T03:43:26.559Z,99.99
2018-10-03T03:44:26.549Z,99.99
2018-10-03T03:45:26.539Z,99.99
2018-10-03T03:46:26.533Z,99.99
2018-10-03T03:47:26.530Z,99.99
2018-10-03T03:48:26.521Z,99.99
2018-10-03T03:49:26.522Z,99.99
2018-10-03T03:50:26.515Z,99.99
2018-10-03T03:51:26.504Z,99.99
2018-10-03T03:52:26.497Z,99.99
2018-10-03T03:53:26.502Z,99.99
2018-10-03T03:54:26.490Z,99.99
2018-10-03T03:55:26.483Z,99.99
2018-10-03T03:56:26.477Z,99.99
2018-10-03T03:57:26.466Z,99.99
2018-10-03T03:58:26.515Z,99.99
2018-10-03T03:59:26.453Z,99.99
2018-10-03T04:00:26.446Z,99.99
2018-10-03T04:01:26.449Z,99.99
2018-10-03T04:02:26.440Z,99.99
2018-10-03T04:03:26.434Z,99.99
2018-10-03T04:04:26.426Z,99.99
2018-10-03T04:05:26.415Z,99.99
2018-10-03T04:06:26.410Z,99.99
2018-10-03T04:07:26.408Z,99.99
2018-10-03T04:08:26.401Z,99.99
2018-10-03T04:09:26.392Z,99.99
2018-10-03T04:10:26.392Z,99.99
2018-10-03T04:11:26.379Z,99.99
2018-10-03T04:12:26.370Z,99.99
2018-10-03T04:13:26.370Z,99.99
2018-10-03T04:14:26.365Z,99.99
2018-10-03T04:15:26.358Z,99.99
2018-10-03T04:16:26.353Z,99.99
2018-10-03T04:17:26.340Z,99.99
2018-10-03T04:18:26.334Z,99.99
2018-10-03T04:19:26.327Z,99.99
2018-10-03T04:20:26.325Z,99.99
2018-10-03T04:21:26.317Z,99.99
2018-10-03T04:22:26.314Z,99.99
2018-10-03T04:23:26.302Z,99.99
2018-10-03T04:24:26.294Z,99.99
2018-10-03T04:25:26.292Z,99.99
2018-10-03T04:26:26.287Z,99.99
2018-10-03T04:27:26.281Z,99.99
2018-10-03T04:28:26.276Z,99.99
2018-10-03T04:29:26.264Z,99.99
2018-10-03T04:30:26.257Z,99.99
2018-10-03T04:31:26.254Z,99.99
2018-10-03T04:32:26.247Z,99.99
2018-10-03T04:33:26.244Z,99.99
2018-10-03T04:34:26.236Z,99.99
2018-10-03T04:35:26.239Z,99.99
2018-10-03T04:36:26.225Z,99.99
2018-10-03T04:37:26.213Z,99.99
2018-10-03T04:38:26.210Z,99.99
2018-10-03T04:39:26.205Z,99.99
2018-10-03T04:40:26.198Z,99.99
2018-10-03T04:41:26.189Z,99.99
2018-10-03T04:42:26.183Z,99.99
2018-10-03T04:43:26.178Z,99.99
2018-10-03T04:44:26.173Z,99.99
2018-10-03T04:45:26.169Z,99.99
2018-10-03T04:46:26.164Z,99.99
2018-10-03T04:47:26.158Z,99.99
2018-10-03T04:48:26.151Z,99.99
2018-10-03T04:49:26.146Z,99.99
2018-10-03T04:50:26.136Z,99.99
2018-10-03T04:51:26.130Z,99.99
2018-10-03T04:52:26.122Z,99.99
2018-10-03T04:53:26.120Z,99.99
2018-10-03T04:54:26.114Z,99.99
2018-10-03T04:55:26.105Z,99.99
2018-10-03T04:56:26.098Z,99.99
2018-10-03T04:57:26.097Z,99.99
2018-10-03T04:58:26.091Z,99.99
2018-10-03T04:59:26.085Z,99.99
2018-10-03T05:00:26.079Z,99.99
2018-10-03T05:01:26.068Z,99.99
2018-10-03T05:02:26.061Z,99.99
2018-10-03T05:03:26.055Z,99.99
2018-10-03T05:04:26.050Z,99.99
2018-10-03T05:05:26.049Z,99.99
2018-10-03T05:06:26.044Z,99.99
2018-10-03T05:07:26.036Z,99.99
2018-10-03T05:08:26.029Z,99.99
2018-10-03T05:09:26.018Z,99.99
2018-10-03T05:10:26.014Z,99.99
2018-10-03T05:11:26.105Z,99.99
2018-10-03T05:12:26.005Z,99.99
2018-10-03T05:13:25.994Z,99.99
2018-10-03T05:14:25.987Z,99.99
2018-10-03T05:15:25.980Z,99.99
2018-10-03T05:16:25.974Z,99.99
2018-10-03T05:17:25.976Z,99.99
2018-10-03T05:18:25.966Z,99.99
2018-10-03T05:19:25.961Z,99.99
2018-10-03T05:20:25.952Z,99.99
2018-10-03T05:21:25.941Z,99.99
2018-10-03T05:22:25.935Z,99.99
2018-10-03T05:23:25.932Z,99.99
2018-10-03T05:24:25.935Z,99.99
2018-10-03T05:25:25.921Z,99.99
2018-10-03T05:26:25.917Z,99.99
2018-10-03T05:27:25.903Z,99.99
2018-10-03T05:28:25.896Z,99.99
2018-10-03T05:29:25.896Z,99.99
2018-10-03T05:30:25.889Z,99.99
2018-10-03T05:31:25.881Z,99.99
2018-10-03T05:32:25.874Z,99.99
2018-10-03T05:33:25.943Z,99.99
2018-10-03T05:34:25.858Z,99.99
2018-10-03T05:35:25.851Z,99.99
2018-10-03T05:36:25.844Z,99.99
2018-10-03T05:37:25.841Z,99.99
2018-10-03T05:38:25.835Z,99.99
2018-10-03T05:39:25.883Z,99.99
2018-10-03T05:40:25.822Z,99.99
2018-10-03T05:41:25.810Z,99.99
2018-10-03T05:42:25.804Z,99.99
2018-10-03T05:43:25.802Z,99.99
2018-10-03T05:44:25.798Z,99.99
2018-10-03T05:45:25.784Z,99.99
2018-10-03T05:46:25.777Z,99.99
2018-10-03T05:47:25.772Z,99.99
2018-10-03T05:48:25.826Z,99.99
2018-10-03T05:49:25.761Z,99.99
2018-10-03T05:50:25.757Z,99.99
2018-10-03T05:51:25.749Z,99.99
2018-10-03T05:52:25.742Z,99.99
2018-10-03T05:53:25.734Z,99.99
2018-10-03T05:54:25.724Z,99.99
2018-10-03T05:55:25.718Z,99.99
2018-10-03T05:56:25.711Z,99.99
2018-10-03T05:57:25.710Z,99.99
2018-10-03T05:58:25.707Z,99.99
2018-10-03T05:59:25.699Z,99.99
2018-10-03T06:00:25.685Z,99.99
2018-10-03T06:01:25.684Z,99.99
2018-10-03T06:02:25.679Z,99.99
2018-10-03T06:03:25.675Z,99.99
2018-10-03T06:04:25.663Z,99.99
2018-10-03T06:05:25.654Z,99.99
2018-10-03T06:06:25.650Z,99.99
2018-10-03T06:07:25.640Z,99.99
2018-10-03T06:08:25.632Z,99.99
2018-10-03T06:09:25.631Z,99.99
2018-10-03T06:10:25.626Z,99.99
2018-10-03T06:11:25.620Z,99.99
2018-10-03T06:12:25.613Z,99.99
2018-10-03T06:13:25.601Z,99.99
2018-10-03T06:14:25.595Z,99.99
2018-10-03T06:15:25.595Z,99.99
2018-10-03T06:16:25.593Z,99.99
2018-10-03T06:17:25.577Z,99.99
2018-10-03T06:18:25.626Z,99.99
2018-10-03T06:19:25.564Z,99.99
2018-10-03T06:20:25.558Z,99.99
2018-10-03T06:21:25.556Z,99.99
2018-10-03T06:22:25.552Z,99.99
2018-10-03T06:23:25.546Z,99.99
2018-10-03T06:24:25.539Z,99.99
2018-10-03T06:25:25.532Z,99.99
2018-10-03T06:26:25.522Z,99.90
2018-10-03T06:27:25.533Z,99.62
2018-10-03T06:28:25.555Z,98.75
2018-10-03T06:29:25.512Z,99.52
2018-10-03T06:30:25.505Z,99.00
2018-10-03T06:31:25.495Z,98.61
2018-10-03T06:32:25.488Z,98.52
2018-10-03T06:33:25.573Z,97.08
2018-10-03T06:34:25.482Z,96.89
2018-10-03T06:35:25.476Z,97.23
2018-10-03T06:36:25.470Z,96.66
2018-10-03T06:37:25.463Z,95.51
2018-10-03T06:38:25.456Z,95.79
2018-10-03T06:39:25.547Z,95.70
2018-10-03T06:40:25.511Z,95.89
2018-10-03T06:41:25.489Z,95.07
2018-10-03T06:42:25.439Z,94.69
2018-10-03T06:43:25.438Z,94.64
2018-10-03T06:44:25.430Z,93.40
2018-10-03T06:45:25.451Z,93.06
2018-10-03T06:46:25.427Z,92.30
2018-10-03T06:47:25.417Z,91.91
2018-10-03T06:48:25.412Z,90.86
2018-10-03T06:49:25.409Z,91.00
2018-10-03T06:50:25.399Z,90.28
2018-10-03T06:51:25.395Z,89.26
2018-10-03T06:52:25.390Z,89.22
2018-10-03T06:53:25.390Z,87.58
2018-10-03T06:54:25.392Z,86.66
2018-10-03T06:55:25.385Z,84.59
2018-10-03T06:56:25.380Z,83.97
2018-10-03T06:57:25.373Z,83.73
2018-10-03T06:58:25.370Z,83.29
2018-10-03T06:59:25.368Z,82.46
2018-10-03T07:00:25.366Z,81.79
2018-10-03T07:01:25.368Z,80.35
2018-10-03T07:02:25.367Z,80.15
2018-10-03T07:03:25.360Z,80.19
2018-10-03T07:04:25.356Z,79.43
2018-10-03T07:05:25.361Z,79.56
2018-10-03T07:06:25.359Z,77.53
2018-10-03T07:07:25.356Z,77.06
2018-10-03T07:08:25.354Z,76.86
2018-10-03T07:09:25.349Z,76.76
2018-10-03T07:10:25.348Z,76.38
2018-10-03T07:11:25.348Z,75.57
2018-10-03T07:12:25.346Z,76.25
2018-10-03T07:13:25.351Z,77.26
2018-10-03T07:14:25.354Z,78.33
2018-10-03T07:15:25.349Z,78.61
2018-10-03T07:16:25.352Z,79.73
2018-10-03T07:17:25.342Z,79.63
2018-10-03T07:18:25.344Z,79.82
2018-10-03T07:19:25.345Z,80.07
2018-10-03T07:20:25.348Z,79.79
2018-10-03T07:21:25.340Z,80.21
2018-10-03T07:22:25.338Z,79.82
2018-10-03T07:23:25.337Z,78.81
2018-10-03T07:24:25.339Z,79.10
2018-10-03T07:25:25.340Z,77.69
2018-10-03T07:26:25.340Z,77.15
2018-10-03T07:27:25.339Z,75.55
2018-10-03T07:28:25.337Z,74.24
2018-10-03T07:29:25.332Z,72.99
2018-10-03T07:30:25.332Z,72.25
2018-10-03T07:31:25.333Z,71.61
2018-10-03T07:32:25.337Z,70.06
2018-10-03T07:33:25.335Z,68.75
2018-10-03T07:34:25.335Z,68.10
2018-10-03T07:35:25.331Z,67.56
2018-10-03T07:36:25.332Z,66.30
2018-10-03T07:37:25.338Z,66.24
2018-10-03T07:38:25.339Z,66.11
2018-10-03T07:39:25.340Z,65.53
2018-10-03T07:40:25.341Z,65.53
2018-10-03T07:41:25.339Z,65.24
2018-10-03T07:42:25.341Z,64.56
2018-10-03T07:43:25.340Z,65.20
2018-10-03T07:44:25.343Z,65.50
2018-10-03T07:45:25.350Z,65.95
2018-10-03T07:46:25.351Z,65.53
2018-10-03T07:47:25.352Z,66.85
2018-10-03T07:48:25.353Z,67.71
2018-10-03T07:49:25.352Z,68.74
2018-10-03T07:50:25.358Z,68.80
2018-10-03T07:51:25.360Z,69.77
2018-10-03T07:52:25.361Z,70.06
2018-10-03T07:53:25.412Z,70.15
2018-10-03T07:54:25.375Z,70.73
2018-10-03T07:55:25.363Z,72.21
2018-10-03T07:56:25.551Z,71.92
2018-10-03T07:57:25.369Z,71.86
2018-10-03T07:58:25.369Z,69.84
2018-10-03T07:59:25.375Z,68.81
2018-10-03T08:00:25.372Z,68.77
2018-10-03T08:01:25.370Z,69.10
2018-10-03T08:02:25.370Z,68.62
2018-10-03T08:03:25.371Z,68.10
2018-10-03T08:04:25.373Z,66.91
2018-10-03T08:05:25.379Z,65.53
2018-10-03T08:06:25.385Z,63.21
2018-10-03T08:07:25.378Z,62.37
2018-10-03T08:08:25.380Z,61.26
2018-10-03T08:09:25.386Z,60.06
2018-10-03T08:10:25.388Z,58.41
2018-10-03T08:11:25.393Z,56.83
2018-10-03T08:12:25.395Z,57.87
2018-10-03T08:13:25.394Z,58.33
2018-10-03T08:14:25.397Z,58.91
2018-10-03T08:15:25.403Z,59.10
2018-10-03T08:16:25.405Z,60.14
2018-10-03T08:17:25.465Z,60.14
2018-10-03T08:18:25.414Z,61.08
2018-10-03T08:19:25.419Z,60.85
2018-10-03T08:20:25.422Z,61.21
2018-10-03T08:21:25.422Z,61.98
2018-10-03T08:22:25.425Z,62.85
2018-10-03T08:23:25.433Z,62.56
2018-10-03T08:24:25.520Z,62.73
2018-10-03T08:25:25.436Z,62.63
2018-10-03T08:26:25.439Z,63.11
2018-10-03T08:27:25.441Z,62.82
2018-10-03T08:28:25.445Z,62.73
2018-10-03T08:29:25.451Z,62.53
2018-10-03T08:30:25.456Z,63.31
2018-10-03T08:31:25.460Z,63.66
2018-10-03T08:32:25.529Z,62.89
2018-10-03T08:33:25.583Z,63.76
2018-10-03T08:34:25.473Z,63.76
2018-10-03T08:35:25.465Z,63.85
2018-10-03T08:36:25.468Z,63.85
2018-10-03T08:37:25.476Z,63.85
2018-10-03T08:38:25.479Z,63.95
2018-10-03T08:39:25.476Z,62.98
2018-10-03T08:40:25.479Z,62.50
2018-10-03T08:41:25.486Z,61.60
2018-10-03T08:42:25.489Z,62.57
2018-10-03T08:43:25.491Z,63.12
2018-10-03T08:44:25.492Z,63.60
2018-10-03T08:45:25.511Z,64.08
2018-10-03T08:46:25.493Z,63.85
2018-10-03T08:47:25.497Z,64.34
2018-10-03T08:48:25.498Z,64.43
2018-10-03T08:49:25.507Z,64.24
2018-10-03T08:50:25.509Z,64.05
2018-10-03T08:51:25.513Z,65.27
2018-10-03T08:52:25.514Z,65.11
2018-10-03T08:53:25.512Z,66.33
2018-10-03T08:54:25.515Z,66.11
2018-10-03T08:55:25.522Z,65.40
2018-10-03T08:56:25.523Z,66.36
2018-10-03T08:57:25.520Z,66.75
2018-10-03T08:58:25.735Z,67.10
2018-10-03T08:59:25.527Z,67.00
2018-10-03T09:00:25.527Z,68.16
2018-10-03T09:01:25.533Z,69.60
2018-10-03T09:02:25.537Z,69.41
2018-10-03T09:03:25.538Z,69.73
2018-10-03T09:04:25.537Z,70.50
2018-10-03T09:05:25.537Z,69.73
2018-10-03T09:06:25.537Z,69.64
2018-10-03T09:07:25.540Z,70.31
2018-10-03T09:08:25.541Z,70.31
2018-10-03T09:09:25.546Z,69.93
2018-10-03T09:10:25.548Z,69.31
2018-10-03T09:11:25.547Z,69.51
2018-10-03T09:12:25.545Z,69.51
2018-10-03T09:13:25.551Z,70.24
2018-10-03T09:14:25.552Z,69.79
2018-10-03T09:15:25.554Z,69.60
2018-10-03T09:16:25.554Z,69.47
2018-10-03T09:17:25.550Z,70.24
2018-10-03T09:18:25.551Z,70.05
2018-10-03T09:19:25.552Z,70.59
2018-10-03T09:20:25.552Z,70.40
2018-10-03T09:21:25.612Z,70.78
2018-10-03T09:22:25.558Z,71.23
2018-10-03T09:23:25.557Z,71.65
2018-10-03T09:24:25.558Z,71.52
2018-10-03T09:25:25.554Z,71.42
2018-10-03T09:26:25.553Z,71.19
2018-10-03T09:27:25.559Z,72.16
2018-10-03T09:28:25.651Z,72.64
2018-10-03T09:29:25.554Z,73.21
2018-10-03T09:30:25.555Z,73.63
2018-10-03T09:31:25.553Z,73.25
2018-10-03T09:32:25.553Z,73.47
2018-10-03T09:33:25.559Z,72.61
2018-10-03T09:34:25.559Z,71.59
2018-10-03T09:35:25.560Z,71.30
2018-10-03T09:36:25.557Z,70.86
2018-10-03T09:37:25.553Z,70.31
2018-10-03T09:38:25.553Z,69.67
2018-10-03T09:39:25.613Z,68.42
2018-10-03T09:40:25.554Z,67.94
2018-10-03T09:41:25.558Z,67.07
2018-10-03T09:42:25.559Z,66.30
2018-10-03T09:43:25.556Z,66.11
2018-10-03T09:44:25.557Z,65.63
2018-10-03T09:45:25.561Z,65.53
2018-10-03T09:46:25.561Z,65.43
2018-10-03T09:47:25.563Z,66.11
2018-10-03T09:48:25.562Z,66.01
2018-10-03T09:49:25.558Z,66.69
2018-10-03T09:50:25.561Z,66.20
2018-10-03T09:51:25.560Z,66.97
2018-10-03T09:52:25.559Z,66.20
2018-10-03T09:53:25.566Z,65.56
2018-10-03T09:54:25.569Z,65.27
2018-10-03T09:55:25.566Z,64.37
2018-10-03T09:56:25.568Z,63.92
2018-10-03T09:57:25.565Z,62.47
2018-10-03T09:58:25.564Z,61.66
2018-10-03T09:59:25.570Z,60.79
2018-10-03T10:00:25.681Z,59.80
2018-10-03T10:01:25.570Z,60.02
2018-10-03T10:02:25.572Z,59.51
2018-10-03T10:03:25.573Z,59.73
2018-10-03T10:04:25.575Z,59.22
2018-10-03T10:05:25.582Z,59.80
2018-10-03T10:06:25.585Z,59.99
2018-10-03T10:07:25.585Z,60.44
2018-10-03T10:08:25.588Z,60.38
2018-10-03T10:09:25.587Z,61.38
2018-10-03T10:10:25.683Z,61.06
2018-10-03T10:11:25.711Z,61.96
2018-10-03T10:12:25.593Z,62.02
2018-10-03T10:13:25.599Z,61.58
2018-10-03T10:14:25.617Z,62.76
2018-10-03T10:15:25.603Z,63.24
2018-10-03T10:16:25.601Z,62.86
2018-10-03T10:17:25.609Z,63.06
2018-10-03T10:18:25.611Z,63.57
2018-10-03T10:19:25.617Z,62.89
2018-10-03T10:20:25.620Z,62.57
2018-10-03T10:21:25.614Z,61.99
2018-10-03T10:22:25.616Z,61.34
2018-10-03T10:23:25.620Z,60.83
2018-10-03T10:24:25.620Z,60.31
2018-10-03T10:25:25.627Z,60.99
2018-10-03T10:26:25.630Z,60.51
2018-10-03T10:27:25.634Z,59.93
2018-10-03T10:28:25.635Z,60.06
2018-10-03T10:29:25.633Z,60.73
2018-10-03T10:30:25.637Z,59.99
2018-10-03T10:31:25.645Z,59.70
2018-10-03T10:32:25.769Z,58.29
2018-10-03T10:33:25.644Z,58.93
2018-10-03T10:34:25.649Z,58.86
2018-10-03T10:35:25.650Z,57.79
2018-10-03T10:36:25.653Z,56.71
2018-10-03T10:37:25.658Z,56.41
2018-10-03T10:38:25.663Z,56.61
2018-10-03T10:39:25.679Z,56.95
2018-10-03T10:40:25.793Z,55.82
2018-10-03T10:41:25.730Z,54.47
2018-10-03T10:42:25.669Z,53.67
2018-10-03T10:43:25.713Z,53.38
2018-10-03T10:44:25.679Z,52.85
2018-10-03T10:45:25.685Z,52.97
2018-10-03T10:46:25.689Z,52.85
2018-10-03T10:47:25.688Z,52.27
2018-10-03T10:48:25.691Z,53.23
2018-10-03T10:49:25.701Z,53.53
2018-10-03T10:50:25.816Z,53.31
2018-10-03T10:51:25.717Z,52.95
2018-10-03T10:52:25.710Z,51.90
2018-10-03T10:53:25.710Z,52.64
2018-10-03T10:54:25.715Z,50.29
2018-10-03T10:55:25.718Z,50.65
2018-10-03T10:56:25.724Z,50.16
2018-10-03T10:57:25.732Z,50.19
2018-10-03T10:58:25.735Z,49.24
2018-10-03T10:59:25.767Z,47.40
2018-10-03T11:00:25.747Z,46.67
2018-10-03T11:01:25.744Z,45.75
2018-10-03T11:02:25.750Z,46.02
2018-10-03T11:03:25.760Z,46.05
2018-10-03T11:04:25.765Z,47.50
2018-10-03T11:05:25.771Z,47.94
2018-10-03T11:06:25.792Z,49.00
2018-10-03T11:07:25.774Z,50.13
2018-10-03T11:08:25.785Z,50.71
2018-10-03T11:09:25.789Z,51.59
2018-10-03T11:10:25.794Z,52.36
2018-10-03T11:11:25.798Z,52.39
2018-10-03T11:12:25.802Z,52.45
2018-10-03T11:13:25.802Z,51.97
2018-10-03T11:14:25.825Z,52.23
2018-10-03T11:15:25.813Z,52.40
2018-10-03T11:16:25.815Z,52.31
2018-10-03T11:17:25.823Z,53.01
2018-10-03T11:18:25.830Z,53.03
2018-10-03T11:19:25.826Z,52.81
2018-10-03T11:20:25.840Z,52.72
2018-10-03T11:21:25.842Z,52.04
2018-10-03T11:22:25.843Z,52.59
2018-10-03T11:23:25.912Z,52.89
2018-10-03T11:24:26.067Z,53.92
2018-10-03T11:25:25.847Z,54.69
2018-10-03T11:26:25.850Z,55.66
2018-10-03T11:27:25.853Z,55.56
2018-10-03T11:28:25.857Z,55.36
2018-10-03T11:29:25.865Z,55.34
2018-10-03T11:30:25.869Z,55.24
2018-10-03T11:31:25.869Z,55.44
2018-10-03T11:32:25.874Z,55.63
2018-10-03T11:33:25.871Z,55.24
2018-10-03T11:34:25.873Z,56.21
2018-10-03T11:35:25.880Z,56.01
2018-10-03T11:36:25.880Z,56.21
2018-10-03T11:37:25.881Z,56.88
2018-10-03T11:38:25.928Z,56.76
2018-10-03T11:39:25.891Z,56.57
2018-10-03T11:40:25.887Z,56.57
2018-10-03T11:41:25.892Z,57.24
2018-10-03T11:42:25.894Z,57.82
2018-10-03T11:43:25.898Z,55.89
2018-10-03T11:44:25.897Z,55.99
2018-10-03T11:45:25.893Z,57.05
2018-10-03T11:46:25.896Z,56.69
2018-10-03T11:47:25.905Z,57.17
2018-10-03T11:48:25.899Z,57.65
2018-10-03T11:49:25.905Z,57.10
2018-10-03T11:50:25.963Z,56.21
2018-10-03T11:51:25.904Z,56.24
2018-10-03T11:52:25.903Z,56.01
2018-10-03T11:53:25.909Z,55.24
2018-10-03T11:54:25.912Z,55.73
2018-10-03T11:55:25.913Z,55.82
2018-10-03T11:56:25.915Z,56.30
2018-10-03T11:57:25.911Z,56.15
2018-10-03T11:58:25.912Z,56.15
2018-10-03T11:59:25.930Z,56.82
2018-10-03T12:00:25.916Z,57.76
2018-10-03T12:01:25.925Z,58.53
2018-10-03T12:02:25.922Z,58.31
2018-10-03T12:03:26.054Z,58.98
2018-10-03T12:04:25.924Z,59.94
2018-10-03T12:05:25.919Z,60.52
2018-10-03T12:06:25.959Z,59.75
2018-10-03T12:07:25.926Z,60.49
2018-10-03T12:08:25.925Z,60.24
2018-10-03T12:09:26.031Z,60.97
2018-10-03T12:10:25.922Z,60.62
2018-10-03T12:11:25.924Z,61.00
2018-10-03T12:12:25.925Z,60.91
2018-10-03T12:13:25.928Z,61.71
2018-10-03T12:14:25.928Z,61.13
2018-10-03T12:15:25.930Z,60.27
2018-10-03T12:16:25.928Z,59.69
2018-10-03T12:17:25.929Z,60.36
2018-10-03T12:18:25.923Z,61.25
2018-10-03T12:19:25.923Z,60.39
2018-10-03T12:20:25.922Z,59.91
2018-10-03T12:21:25.926Z,59.62
2018-10-03T12:22:25.926Z,59.33
2018-10-03T12:23:25.923Z,58.65
2018-10-03T12:24:25.922Z,58.47
2018-10-03T12:25:25.927Z,58.95
2018-10-03T12:26:25.927Z,59.81
2018-10-03T12:27:25.928Z,59.97
2018-10-03T12:28:25.929Z,59.59
2018-10-03T12:29:25.923Z,59.40
2018-10-03T12:30:25.922Z,59.94
2018-10-03T12:31:25.922Z,59.75
2018-10-03T12:32:25.921Z,60.14
2018-10-03T12:33:25.970Z,59.85
2018-10-03T12:34:25.929Z,60.04
2018-10-03T12:35:25.927Z,60.14
2018-10-03T12:36:25.926Z,59.75
2018-10-03T12:37:25.920Z,60.30
2018-10-03T12:38:25.920Z,60.69
2018-10-03T12:39:25.926Z,61.65
2018-10-03T12:40:25.924Z,61.94
2018-10-03T12:41:25.919Z,61.55
2018-10-03T12:42:25.919Z,61.26
2018-10-03T12:43:25.919Z,61.65
2018-10-03T12:44:25.917Z,61.55
2018-10-03T12:45:25.921Z,61.16
2018-10-03T12:46:25.923Z,61.07
2018-10-03T12:47:25.919Z,60.59
2018-10-03T12:48:25.918Z,60.78
2018-10-03T12:49:25.913Z,60.21
2018-10-03T12:50:25.913Z,60.01
2018-10-03T12:51:25.913Z,60.11
2018-10-03T12:52:25.910Z,59.44